Accueil
METAR-TAF:

METAR-TAF

Aéroports :

Weno, Micronésie

Aéroport international de Chuuk

latitude: 07-28N, longitude: 151-51E, altitude: 3 m

Observation

Le bulletin a été fait il y a 15 minutes, à 19:51 UTC
Vent 5 kt de direction variable
Température 27°C
Humidité 79%
Pression 1011 hPa
Visibilité: 24.1 km
Quelques nuages à une hauteur de 1400 ft
Nuages fragmentés à une hauteur de 28000 ft

METAR: PTKK 231951Z VRB05KT 15SM FEW014 BKN280 27/23 A2985 RMK SLP110 T02720233

Heure: 06:06 (20:06 UTC)

Prévision

Le bulletin a été fait il y a 2 heures et 46 minutes, à 17:20 UTC
Prévision valable du 23 à 18 UTC au 24 à 18 UTC
Vent 8 kt de nord-est
Visibilité: 10 km
Nuages épars à une hauteur de 1400 ft
Nuages fragmentés à une hauteur de 12000 ft
averses à proximité

TAF: PTKK 231720Z 2318/2418 05008KT P6SM VCSH SCT014 BKN120

Observations et prévisions météorologiques de plus de 4000 aéroports (messages METAR et TAF).

Les stations disponibles sont représentées par des disques jaunes et rouges sur la carte.

Passer la souris dessus pour voir le nom de la station.

Cliquer dessus pour voir les observations et prévisions météorologiques.

Pour changer de carte: cliquez sur les boutons verts avec une croix noire pour zoomer, sur le bouton vert avec un tiret pour effectuer un zoom arrière, ou sur les flèches vertes pour les cartes adjacentes.


METAR-TAF: